createdAt,value
2023-04-09T04:02:16.829Z,20.95
2023-04-09T04:06:24.051Z,19.65
2023-04-09T04:10:42.258Z,21.77
2023-04-09T04:14:46.917Z,22.08
2023-04-09T04:19:00.973Z,21.43
2023-04-09T04:23:06.553Z,20.17
2023-04-09T04:27:11.437Z,18.92
2023-04-09T04:31:14.381Z,18.67
2023-04-09T04:35:18.694Z,19.48
2023-04-09T04:39:22.217Z,20.15
2023-04-09T04:43:30.477Z,21.23
2023-04-09T04:47:35.213Z,19.58
2023-04-09T04:51:41.089Z,21.40
2023-04-09T04:55:47.644Z,20.92
2023-04-09T04:59:53.117Z,21.50
2023-04-09T05:03:56.067Z,20.77
2023-04-09T05:08:05.462Z,19.70
2023-04-09T05:12:08.221Z,19.45
2023-04-09T05:16:17.259Z,19.87
2023-04-09T05:20:21.366Z,18.95
2023-04-09T05:24:34.188Z,18.73
2023-04-09T05:28:37.001Z,19.77
2023-04-09T05:32:48.619Z,18.40
2023-04-09T05:36:52.322Z,17.85
2023-04-09T05:40:59.180Z,18.73
2023-04-09T05:45:02.106Z,19.35
2023-04-09T05:49:05.056Z,17.77
2023-04-09T05:53:09.216Z,18.70
2023-04-09T05:57:17.386Z,18.67
2023-04-09T06:01:27.116Z,19.20
2023-04-09T06:05:29.870Z,18.05
2023-04-09T06:09:32.411Z,18.23
2023-04-09T06:13:36.377Z,18.90
2023-04-09T06:17:38.921Z,19.15
2023-04-09T06:21:42.345Z,17.93
2023-04-09T06:25:44.880Z,17.88
2023-04-09T06:29:48.735Z,18.07
2023-04-09T06:33:51.652Z,18.45
2023-04-09T06:37:54.440Z,16.95
2023-04-09T06:41:56.936Z,18.63
2023-04-09T06:46:17.250Z,17.42
2023-04-09T06:50:19.835Z,19.20
2023-04-09T06:54:22.505Z,18.73
2023-04-09T06:58:25.052Z,18.27
2023-04-09T07:02:29.149Z,18.30
2023-04-09T07:06:31.843Z,18.67
2023-04-09T07:10:34.409Z,18.43
2023-04-09T07:14:36.957Z,19.40
2023-04-09T07:18:40.981Z,18.63
2023-04-09T07:22:43.523Z,17.67
2023-04-09T07:26:46.058Z,18.42
2023-04-09T07:30:48.594Z,19.17
2023-04-09T07:34:53.727Z,18.73
2023-04-09T07:38:56.276Z,17.92
2023-04-09T07:42:59.072Z,18.17
2023-04-09T07:47:01.840Z,17.07
2023-04-09T07:51:06.158Z,18.08
2023-04-09T07:55:09.095Z,17.88
2023-04-09T07:59:11.858Z,18.10
2023-04-09T08:03:14.653Z,17.08
2023-04-09T08:07:18.554Z,17.10
2023-04-09T08:11:25.162Z,16.52
2023-04-09T08:15:27.791Z,16.42
2023-04-09T08:19:30.433Z,16.40
2023-04-09T08:23:34.249Z,17.13
2023-04-09T08:27:37.054Z,16.42
2023-04-09T08:31:39.657Z,17.15
2023-04-09T08:35:42.556Z,16.47
2023-04-09T08:39:46.411Z,18.33
2023-04-09T08:43:57.610Z,21.52
2023-04-09T08:48:03.715Z,19.58
2023-04-09T08:52:06.485Z,15.88
2023-04-09T08:56:10.336Z,16.02
2023-04-09T09:00:13.980Z,16.30
2023-04-09T09:04:16.695Z,15.57
2023-04-09T09:08:24.591Z,15.77
2023-04-09T09:12:33.918Z,18.20
2023-04-09T09:16:40.272Z,18.27
2023-04-09T09:20:43.208Z,18.25
2023-04-09T09:24:50.701Z,24.35
2023-04-09T09:28:55.619Z,22.70
2023-04-09T09:33:07.042Z,21.02
2023-04-09T09:37:27.696Z,18.67
2023-04-09T09:41:30.904Z,17.35
2023-04-09T09:45:35.084Z,16.38
2023-04-09T09:49:37.653Z,16.90
2023-04-09T09:53:42.104Z,15.97
2023-04-09T09:57:45.967Z,16.40
2023-04-09T10:01:56.935Z,16.38
2023-04-09T10:06:02.438Z,16.40
2023-04-09T10:10:08.311Z,14.98
2023-04-09T10:14:11.017Z,15.00
2023-04-09T10:18:17.260Z,16.50
2023-04-09T10:22:24.315Z,15.10
2023-04-09T10:26:30.650Z,15.00
2023-04-09T10:30:33.502Z,16.77
2023-04-09T10:34:39.756Z,15.07
2023-04-09T10:38:46.759Z,14.77
2023-04-09T10:42:50.680Z,15.13
2023-04-09T10:46:54.906Z,13.40
2023-04-09T10:50:58.924Z,14.13
2023-04-09T10:55:01.449Z,11.02
2023-04-09T10:59:04.321Z,10.40
2023-04-09T11:03:24.400Z,10.93
2023-04-09T11:07:29.749Z,10.95
2023-04-09T11:11:33.659Z,10.40
2023-04-09T11:15:37.491Z,11.82
2023-04-09T11:19:40.175Z,11.20
2023-04-09T11:23:52.785Z,10.63
2023-04-09T11:27:55.586Z,10.57
2023-04-09T11:31:58.103Z,10.00
2023-04-09T11:36:01.707Z,9.60
2023-04-09T11:40:06.616Z,9.45
2023-04-09T11:44:09.294Z,10.18
2023-04-09T11:48:12.879Z,9.63
2023-04-09T11:52:16.882Z,9.98
2023-04-09T11:56:21.252Z,9.80
2023-04-09T12:00:24.956Z,10.27
2023-04-09T12:04:27.775Z,10.63
2023-04-09T12:08:31.147Z,10.63
2023-04-09T12:12:42.470Z,10.65
2023-04-09T12:16:45.644Z,11.85
2023-04-09T12:20:49.601Z,11.63
2023-04-09T12:24:52.132Z,11.13
2023-04-09T12:28:56.049Z,10.27
2023-04-09T12:32:59.695Z,10.75
2023-04-09T12:37:02.305Z,10.38
2023-04-09T12:41:05.057Z,10.40
2023-04-09T12:45:11.216Z,11.15
2023-04-09T12:49:14.441Z,11.70
2023-04-09T12:53:16.997Z,10.98
2023-04-09T12:57:19.576Z,10.57
2023-04-09T13:01:23.547Z,11.20
2023-04-09T13:05:26.152Z,10.32
2023-04-09T13:09:28.729Z,10.13
2023-04-09T13:13:31.500Z,9.93
2023-04-09T13:17:35.458Z,11.10
2023-04-09T13:21:38.141Z,10.23
2023-04-09T13:25:40.660Z,10.63
2023-04-09T13:29:43.234Z,8.93
2023-04-09T13:33:47.146Z,9.17
2023-04-09T13:37:49.721Z,9.80
2023-04-09T13:41:52.276Z,9.80
2023-04-09T13:45:55.124Z,10.07
2023-04-09T13:49:58.991Z,10.25
2023-04-09T13:54:02.781Z,9.23
2023-04-09T13:58:07.126Z,10.63
2023-04-09T14:02:10.165Z,10.40
2023-04-09T14:06:14.431Z,8.50
2023-04-09T14:10:17.120Z,8.80
2023-04-09T14:14:19.905Z,9.05
2023-04-09T14:18:22.454Z,9.02
2023-04-09T14:22:28.154Z,9.98
2023-04-09T14:26:30.802Z,9.07
2023-04-09T14:30:33.326Z,9.20
2023-04-09T14:34:36.568Z,9.63
2023-04-09T14:46:45.276Z,8.20
2023-04-09T14:50:51.167Z,8.60
2023-04-09T14:54:55.013Z,8.50
2023-04-09T14:58:57.562Z,8.50
2023-04-09T15:03:00.493Z,9.50
2023-04-09T15:07:03.166Z,8.93
2023-04-09T15:11:08.590Z,8.20
2023-04-09T15:15:13.368Z,9.07
2023-04-09T15:19:15.970Z,8.20
2023-04-09T15:23:18.523Z,8.88
2023-04-09T15:27:22.406Z,8.73
2023-04-09T15:31:24.975Z,8.30
2023-04-09T15:35:29.390Z,8.50
2023-04-09T15:39:32.486Z,8.25
2023-04-09T15:43:36.515Z,9.00
2023-04-09T15:47:39.051Z,9.65
2023-04-09T15:51:41.590Z,8.90
2023-04-09T15:55:44.125Z,8.45
2023-04-09T15:59:48.317Z,8.55
2023-04-09T16:03:52.179Z,8.82
2023-04-09T16:07:55.991Z,8.48
2023-04-09T16:12:00.160Z,8.32
2023-04-09T16:16:04.313Z,8.07
2023-04-09T16:20:08.545Z,8.40
2023-04-09T16:24:12.525Z,8.45
2023-04-09T16:28:15.834Z,7.63
2023-04-09T16:32:19.738Z,7.78
2023-04-09T16:36:22.383Z,8.65
2023-04-09T16:40:25.099Z,7.70
2023-04-09T16:44:27.616Z,8.18
2023-04-09T16:48:32.315Z,8.05
2023-04-09T16:52:36.640Z,7.75
2023-04-09T16:56:39.224Z,8.15
2023-04-09T17:00:44.078Z,8.70
2023-04-09T17:04:50.281Z,8.40
2023-04-09T17:08:52.991Z,8.40
2023-04-09T17:12:55.678Z,8.25
2023-04-09T17:16:58.795Z,8.38
2023-04-09T17:21:02.784Z,8.95
2023-04-09T17:25:05.790Z,8.38
2023-04-09T17:29:08.323Z,8.38
2023-04-09T17:33:12.108Z,7.88
2023-04-09T17:37:16.181Z,9.25
2023-04-09T17:41:18.805Z,9.13
2023-04-09T17:45:21.335Z,8.35
2023-04-09T17:49:23.873Z,8.60
2023-04-09T17:53:27.705Z,9.00
2023-04-09T17:57:30.225Z,8.63
2023-04-09T18:01:32.874Z,8.67
2023-04-09T18:05:36.382Z,9.00
2023-04-09T18:09:40.626Z,9.05
2023-04-09T18:13:43.206Z,8.60
2023-04-09T18:17:45.788Z,8.60
2023-04-09T18:21:48.448Z,8.37
2023-04-09T18:25:52.317Z,11.80
2023-04-09T18:29:55.834Z,10.07
2023-04-09T18:33:58.358Z,8.90
2023-04-09T18:38:01.102Z,10.10
2023-04-09T18:42:05.258Z,10.27
2023-04-09T18:46:07.837Z,8.95
2023-04-09T18:50:12.309Z,10.20
2023-04-09T18:54:15.502Z,8.68
2023-04-09T18:58:19.340Z,9.32
2023-04-09T19:02:22.003Z,24.60
2023-04-09T19:06:27.140Z,14.13
2023-04-09T19:10:29.906Z,10.75
2023-04-09T19:14:33.768Z,11.50
2023-04-09T19:18:36.467Z,12.20
2023-04-09T19:22:39.008Z,13.00
2023-04-09T19:26:41.556Z,11.00
2023-04-09T19:30:45.426Z,10.77
2023-04-09T19:34:47.955Z,11.82
2023-04-09T19:38:51.789Z,10.80
2023-04-09T19:42:55.949Z,11.13
2023-04-09T19:46:59.818Z,13.27
2023-04-09T19:51:02.962Z,11.63
2023-04-09T19:55:06.481Z,14.15
2023-04-09T20:03:13.026Z,11.32
2023-04-09T20:07:16.389Z,11.07
2023-04-09T20:11:19.002Z,11.52
2023-04-09T20:15:21.598Z,11.17
2023-04-09T20:19:25.549Z,11.43
2023-04-09T20:23:28.063Z,11.98
2023-04-09T20:27:31.276Z,11.90
2023-04-09T20:31:34.950Z,11.68
2023-04-09T20:35:39.080Z,21.30
2023-04-09T20:39:41.686Z,14.63
2023-04-09T20:43:44.244Z,11.90
2023-04-09T20:47:46.857Z,12.57
2023-04-09T20:51:51.823Z,10.83
2023-04-09T20:55:54.501Z,13.23
2023-04-09T20:59:57.215Z,10.40
